TimeCST,TemperatureF,Dew PointF,Humidity,Sea Level PressureIn,VisibilityMPH,Wind Direction,Wind SpeedMPH,Gust SpeedMPH,PrecipitationIn,Events,Conditions,WindDirDegrees,DateUTC
12:53 AM,6.1,-0.9,73,30.46,9.0,North,19.6,-,N/A,,Overcast,10,2014-03-02 06:53:00
1:53 AM,5.0,-2.9,70,30.52,10.0,North,23.0,-,0.00,,Overcast,10,2014-03-02 07:53:00
2:53 AM,5.0,-4.0,66,30.51,9.0,North,19.6,-,0.00,Snow,Light Snow,10,2014-03-02 08:53:00
3:53 AM,5.0,-4.0,66,30.51,9.0,North,18.4,-,0.00,,Overcast,10,2014-03-02 09:53:00
4:53 AM,5.0,-4.0,66,30.53,10.0,North,15.0,-,0.00,,Overcast,10,2014-03-02 10:53:00
5:53 AM,5.0,-2.9,70,30.56,9.0,NNE,16.1,-,N/A,,Overcast,20,2014-03-02 11:53:00
6:06 AM,5.0,-5.1,63,30.47,10.0,North,16.1,25.3,N/A,,Overcast,10,2014-03-02 12:06:00
6:53 AM,3.9,-5.1,66,30.60,10.0,NNE,15.0,23.0,0.00,,Overcast,20,2014-03-02 12:53:00
7:53 AM,3.9,-6.0,64,30.55,10.0,NNE,19.6,-,0.00,,Overcast,30,2014-03-02 13:53:00
8:53 AM,3.9,-6.0,64,30.60,10.0,North,19.6,-,N/A,,Scattered Clouds,10,2014-03-02 14:53:00
9:53 AM,3.0,-7.1,63,30.60,10.0,North,21.9,-,N/A,,Overcast,10,2014-03-02 15:53:00
10:53 AM,3.9,-6.0,64,30.62,3.0,North,15.0,-,0.00,Snow,Light Snow,10,2014-03-02 16:53:00
11:53 AM,6.1,-5.1,60,30.63,7.0,North,18.4,-,0.00,Snow,Light Snow,350,2014-03-02 17:53:00
12:53 PM,6.1,-5.1,60,30.59,9.0,North,19.6,-,0.00,Snow,Light Snow,10,2014-03-02 18:53:00
1:53 PM,9.0,-2.9,59,30.57,9.0,North,18.4,28.8,0.00,,Overcast,350,2014-03-02 19:53:00
2:53 PM,8.1,-5.1,55,30.54,10.0,North,20.7,-,N/A,,Mostly Cloudy,10,2014-03-02 20:53:00
3:53 PM,9.0,-6.0,51,30.55,10.0,NNE,17.3,25.3,N/A,,Overcast,20,2014-03-02 21:53:00
4:53 PM,8.1,-6.0,53,30.52,9.0,North,18.4,-,0.00,Snow,Light Snow,10,2014-03-02 22:53:00
5:53 PM,7.0,-9.0,48,30.55,9.0,NNE,18.4,-,0.00,Snow,Light Snow,20,2014-03-02 23:53:00
6:53 PM,6.1,-9.0,50,30.59,10.0,North,12.7,-,0.00,,Overcast,10,2014-03-03 00:53:00
7:53 PM,6.1,-8.0,53,30.61,10.0,North,13.8,-,N/A,,Mostly Cloudy,360,2014-03-03 01:53:00
8:53 PM,7.0,-9.0,48,30.61,10.0,North,13.8,-,N/A,,Clear,10,2014-03-03 02:53:00
9:53 PM,7.0,-8.0,51,30.61,10.0,NNE,11.5,-,N/A,,Clear,20,2014-03-03 03:53:00
10:53 PM,7.0,-8.0,51,30.63,10.0,North,10.4,-,N/A,,Clear,10,2014-03-03 04:53:00
11:53 PM,6.1,-8.0,53,30.64,10.0,North,13.8,-,N/A,,Clear,360,2014-03-03 05:53:00